sensor_id;sensor_type;location;lat;lon;timestamp;P1;durP1;ratioP1;P2;durP2;ratioP2
18853;SDS011;9556;49.374;19.446;2022-07-29T00:02:06;15.33;;;9.70;;
18853;SDS011;9556;49.374;19.446;2022-07-29T00:04:33;13.47;;;9.40;;
18853;SDS011;9556;49.374;19.446;2022-07-29T00:07:00;15.90;;;9.10;;
18853;SDS011;9556;49.374;19.446;2022-07-29T00:09:28;14.37;;;9.23;;
18853;SDS011;9556;49.374;19.446;2022-07-29T00:11:55;12.47;;;9.37;;
18853;SDS011;9556;49.374;19.446;2022-07-29T00:14:25;14.27;;;8.93;;
18853;SDS011;9556;49.374;19.446;2022-07-29T00:16:52;11.90;;;8.87;;
18853;SDS011;9556;49.374;19.446;2022-07-29T00:19:19;14.60;;;9.70;;
18853;SDS011;9556;49.374;19.446;2022-07-29T00:21:47;16.30;;;9.43;;
18853;SDS011;9556;49.374;19.446;2022-07-29T00:24:14;13.93;;;9.87;;
18853;SDS011;9556;49.374;19.446;2022-07-29T00:26:41;14.20;;;10.00;;
18853;SDS011;9556;49.374;19.446;2022-07-29T00:29:08;15.80;;;8.90;;
18853;SDS011;9556;49.374;19.446;2022-07-29T00:31:37;16.47;;;10.20;;
18853;SDS011;9556;49.374;19.446;2022-07-29T00:34:04;15.17;;;9.37;;
18853;SDS011;9556;49.374;19.446;2022-07-29T00:36:51;14.23;;;10.10;;
18853;SDS011;9556;49.374;19.446;2022-07-29T00:39:18;15.27;;;9.60;;
18853;SDS011;9556;49.374;19.446;2022-07-29T00:41:45;14.83;;;9.77;;
18853;SDS011;9556;49.374;19.446;2022-07-29T00:44:12;11.93;;;8.00;;
18853;SDS011;9556;49.374;19.446;2022-07-29T00:46:40;17.13;;;9.80;;
18853;SDS011;9556;49.374;19.446;2022-07-29T00:49:07;16.03;;;9.30;;
18853;SDS011;9556;49.374;19.446;2022-07-29T00:51:35;14.00;;;9.97;;
18853;SDS011;9556;49.374;19.446;2022-07-29T00:54:02;17.77;;;9.83;;
18853;SDS011;9556;49.374;19.446;2022-07-29T00:56:30;14.57;;;9.20;;
18853;SDS011;9556;49.374;19.446;2022-07-29T00:58:57;14.83;;;9.83;;
18853;SDS011;9556;49.374;19.446;2022-07-29T01:01:24;18.30;;;10.33;;
18853;SDS011;9556;49.374;19.446;2022-07-29T01:03:53;15.07;;;10.27;;
18853;SDS011;9556;49.374;19.446;2022-07-29T01:06:20;16.53;;;10.13;;
18853;SDS011;9556;49.374;19.446;2022-07-29T01:08:48;13.97;;;9.60;;
18853;SDS011;9556;49.374;19.446;2022-07-29T01:11:16;16.93;;;10.10;;
18853;SDS011;9556;49.374;19.446;2022-07-29T01:13:43;15.07;;;9.87;;
18853;SDS011;9556;49.374;19.446;2022-07-29T01:16:13;18.90;;;10.20;;
18853;SDS011;9556;49.374;19.446;2022-07-29T01:18:42;16.40;;;11.00;;
18853;SDS011;9556;49.374;19.446;2022-07-29T01:24:11;15.27;;;10.33;;
18853;SDS011;9556;49.374;19.446;2022-07-29T01:26:42;21.13;;;11.13;;
18853;SDS011;9556;49.374;19.446;2022-07-29T01:31:56;18.47;;;11.10;;
18853;SDS011;9556;49.374;19.446;2022-07-29T01:34:27;13.87;;;10.87;;
18853;SDS011;9556;49.374;19.446;2022-07-29T01:36:58;14.20;;;10.33;;
18853;SDS011;9556;49.374;19.446;2022-07-29T01:39:30;20.10;;;10.77;;
18853;SDS011;9556;49.374;19.446;2022-07-29T01:42:06;18.13;;;9.77;;
18853;SDS011;9556;49.374;19.446;2022-07-29T01:44:37;15.70;;;10.47;;
18853;SDS011;9556;49.374;19.446;2022-07-29T01:47:10;17.47;;;10.67;;
18853;SDS011;9556;49.374;19.446;2022-07-29T01:49:39;15.80;;;10.40;;
18853;SDS011;9556;49.374;19.446;2022-07-29T01:52:08;14.63;;;10.43;;
18853;SDS011;9556;49.374;19.446;2022-07-29T01:54:38;15.00;;;10.00;;
18853;SDS011;9556;49.374;19.446;2022-07-29T01:57:08;22.27;;;10.13;;
18853;SDS011;9556;49.374;19.446;2022-07-29T01:59:36;18.57;;;10.43;;
18853;SDS011;9556;49.374;19.446;2022-07-29T02:02:04;15.83;;;10.77;;
18853;SDS011;9556;49.374;19.446;2022-07-29T02:04:34;16.03;;;10.13;;
18853;SDS011;9556;49.374;19.446;2022-07-29T02:07:03;13.37;;;10.07;;
18853;SDS011;9556;49.374;19.446;2022-07-29T02:09:32;15.20;;;11.40;;
18853;SDS011;9556;49.374;19.446;2022-07-29T02:12:00;15.33;;;10.97;;
18853;SDS011;9556;49.374;19.446;2022-07-29T02:14:28;17.13;;;10.53;;
18853;SDS011;9556;49.374;19.446;2022-07-29T02:16:57;15.53;;;9.93;;
18853;SDS011;9556;49.374;19.446;2022-07-29T02:19:25;13.77;;;10.43;;
18853;SDS011;9556;49.374;19.446;2022-07-29T02:21:54;14.40;;;10.40;;
18853;SDS011;9556;49.374;19.446;2022-07-29T02:24:23;15.50;;;11.37;;
18853;SDS011;9556;49.374;19.446;2022-07-29T02:26:51;15.63;;;10.90;;
18853;SDS011;9556;49.374;19.446;2022-07-29T02:29:19;16.17;;;11.47;;
18853;SDS011;9556;49.374;19.446;2022-07-29T02:31:48;22.03;;;11.50;;
18853;SDS011;9556;49.374;19.446;2022-07-29T02:34:15;16.57;;;10.93;;
18853;SDS011;9556;49.374;19.446;2022-07-29T02:36:44;16.67;;;10.90;;
18853;SDS011;9556;49.374;19.446;2022-07-29T02:39:13;18.93;;;11.70;;
18853;SDS011;9556;49.374;19.446;2022-07-29T02:41:42;15.97;;;11.70;;
18853;SDS011;9556;49.374;19.446;2022-07-29T02:44:10;14.93;;;10.60;;
18853;SDS011;9556;49.374;19.446;2022-07-29T02:46:41;16.70;;;10.80;;
18853;SDS011;9556;49.374;19.446;2022-07-29T02:49:17;14.13;;;10.00;;
18853;SDS011;9556;49.374;19.446;2022-07-29T02:51:45;16.47;;;10.33;;
18853;SDS011;9556;49.374;19.446;2022-07-29T02:54:20;19.03;;;10.77;;
18853;SDS011;9556;49.374;19.446;2022-07-29T02:56:47;21.17;;;10.93;;
18853;SDS011;9556;49.374;19.446;2022-07-29T02:59:18;18.30;;;11.03;;
18853;SDS011;9556;49.374;19.446;2022-07-29T03:01:48;14.83;;;11.03;;
18853;SDS011;9556;49.374;19.446;2022-07-29T03:04:16;17.10;;;12.10;;
18853;SDS011;9556;49.374;19.446;2022-07-29T03:06:44;18.97;;;11.70;;
18853;SDS011;9556;49.374;19.446;2022-07-29T03:09:11;15.47;;;12.03;;
18853;SDS011;9556;49.374;19.446;2022-07-29T03:11:40;18.10;;;11.73;;
18853;SDS011;9556;49.374;19.446;2022-07-29T03:14:07;17.40;;;11.77;;
18853;SDS011;9556;49.374;19.446;2022-07-29T03:16:35;22.43;;;11.97;;
18853;SDS011;9556;49.374;19.446;2022-07-29T03:19:03;19.40;;;12.10;;
18853;SDS011;9556;49.374;19.446;2022-07-29T03:21:31;21.40;;;12.83;;
18853;SDS011;9556;49.374;19.446;2022-07-29T03:23:58;22.83;;;12.13;;
18853;SDS011;9556;49.374;19.446;2022-07-29T03:26:25;18.43;;;11.80;;
18853;SDS011;9556;49.374;19.446;2022-07-29T03:28:54;19.30;;;11.83;;
18853;SDS011;9556;49.374;19.446;2022-07-29T03:31:21;18.63;;;11.67;;
18853;SDS011;9556;49.374;19.446;2022-07-29T03:33:48;27.60;;;12.63;;
18853;SDS011;9556;49.374;19.446;2022-07-29T03:36:15;25.57;;;12.97;;
18853;SDS011;9556;49.374;19.446;2022-07-29T03:38:42;22.73;;;12.30;;
18853;SDS011;9556;49.374;19.446;2022-07-29T03:41:11;22.60;;;12.63;;
18853;SDS011;9556;49.374;19.446;2022-07-29T03:43:40;19.43;;;12.60;;
18853;SDS011;9556;49.374;19.446;2022-07-29T03:46:09;19.23;;;12.50;;
18853;SDS011;9556;49.374;19.446;2022-07-29T03:48:37;19.50;;;11.93;;
18853;SDS011;9556;49.374;19.446;2022-07-29T03:51:06;19.03;;;12.60;;
18853;SDS011;9556;49.374;19.446;2022-07-29T03:53:33;21.70;;;13.40;;
18853;SDS011;9556;49.374;19.446;2022-07-29T03:56:01;23.83;;;13.10;;
18853;SDS011;9556;49.374;19.446;2022-07-29T03:58:29;21.43;;;13.23;;
18853;SDS011;9556;49.374;19.446;2022-07-29T04:00:57;21.87;;;12.53;;
18853;SDS011;9556;49.374;19.446;2022-07-29T04:03:25;18.10;;;12.13;;
18853;SDS011;9556;49.374;19.446;2022-07-29T04:05:59;23.50;;;12.40;;
18853;SDS011;9556;49.374;19.446;2022-07-29T04:08:26;18.00;;;11.40;;
18853;SDS011;9556;49.374;19.446;2022-07-29T04:10:53;15.27;;;11.50;;
18853;SDS011;9556;49.374;19.446;2022-07-29T04:13:21;17.83;;;11.83;;
18853;SDS011;9556;49.374;19.446;2022-07-29T04:15:48;15.37;;;11.93;;
18853;SDS011;9556;49.374;19.446;2022-07-29T04:18:15;17.10;;;12.17;;
18853;SDS011;9556;49.374;19.446;2022-07-29T04:20:43;20.00;;;12.20;;
18853;SDS011;9556;49.374;19.446;2022-07-29T04:23:10;16.73;;;11.50;;
18853;SDS011;9556;49.374;19.446;2022-07-29T04:25:38;19.20;;;11.93;;
18853;SDS011;9556;49.374;19.446;2022-07-29T04:28:05;19.03;;;12.17;;
18853;SDS011;9556;49.374;19.446;2022-07-29T04:30:32;17.33;;;12.07;;
18853;SDS011;9556;49.374;19.446;2022-07-29T04:33:00;17.33;;;12.00;;
18853;SDS011;9556;49.374;19.446;2022-07-29T04:35:27;19.23;;;11.60;;
18853;SDS011;9556;49.374;19.446;2022-07-29T04:37:56;35.97;;;11.90;;
18853;SDS011;9556;49.374;19.446;2022-07-29T04:40:23;21.00;;;10.93;;
18853;SDS011;9556;49.374;19.446;2022-07-29T04:42:50;16.57;;;11.33;;
18853;SDS011;9556;49.374;19.446;2022-07-29T04:45:17;22.57;;;12.43;;
18853;SDS011;9556;49.374;19.446;2022-07-29T04:47:44;22.73;;;11.20;;
18853;SDS011;9556;49.374;19.446;2022-07-29T04:50:11;17.37;;;12.27;;
18853;SDS011;9556;49.374;19.446;2022-07-29T04:52:38;23.00;;;12.70;;
18853;SDS011;9556;49.374;19.446;2022-07-29T04:55:07;19.53;;;11.90;;
18853;SDS011;9556;49.374;19.446;2022-07-29T04:57:35;16.63;;;12.27;;
18853;SDS011;9556;49.374;19.446;2022-07-29T05:00:03;23.43;;;12.90;;
18853;SDS011;9556;49.374;19.446;2022-07-29T05:02:30;20.77;;;13.27;;
18853;SDS011;9556;49.374;19.446;2022-07-29T05:04:57;16.97;;;13.03;;
18853;SDS011;9556;49.374;19.446;2022-07-29T05:07:24;21.77;;;12.67;;
18853;SDS011;9556;49.374;19.446;2022-07-29T05:09:51;18.23;;;12.17;;
18853;SDS011;9556;49.374;19.446;2022-07-29T05:12:23;15.57;;;12.33;;
18853;SDS011;9556;49.374;19.446;2022-07-29T05:14:50;19.57;;;11.33;;
18853;SDS011;9556;49.374;19.446;2022-07-29T05:17:17;18.97;;;11.97;;
18853;SDS011;9556;49.374;19.446;2022-07-29T05:19:44;17.60;;;11.27;;
18853;SDS011;9556;49.374;19.446;2022-07-29T05:22:11;14.30;;;10.90;;
18853;SDS011;9556;49.374;19.446;2022-07-29T05:24:38;20.10;;;11.83;;
18853;SDS011;9556;49.374;19.446;2022-07-29T05:27:05;16.33;;;11.70;;
18853;SDS011;9556;49.374;19.446;2022-07-29T05:29:34;14.73;;;10.57;;
18853;SDS011;9556;49.374;19.446;2022-07-29T05:32:01;15.83;;;10.80;;
18853;SDS011;9556;49.374;19.446;2022-07-29T05:34:29;15.77;;;10.33;;
18853;SDS011;9556;49.374;19.446;2022-07-29T05:36:56;18.50;;;10.53;;
18853;SDS011;9556;49.374;19.446;2022-07-29T05:39:23;14.37;;;9.97;;
18853;SDS011;9556;49.374;19.446;2022-07-29T05:41:50;13.37;;;10.07;;
18853;SDS011;9556;49.374;19.446;2022-07-29T05:44:17;13.50;;;9.77;;
18853;SDS011;9556;49.374;19.446;2022-07-29T05:46:46;13.10;;;9.73;;
18853;SDS011;9556;49.374;19.446;2022-07-29T05:49:13;18.73;;;9.67;;
18853;SDS011;9556;49.374;19.446;2022-07-29T05:51:40;14.77;;;9.13;;
18853;SDS011;9556;49.374;19.446;2022-07-29T05:54:07;13.87;;;9.50;;
18853;SDS011;9556;49.374;19.446;2022-07-29T05:56:35;15.40;;;10.10;;
18853;SDS011;9556;49.374;19.446;2022-07-29T05:59:02;14.20;;;9.83;;
18853;SDS011;9556;49.374;19.446;2022-07-29T06:01:29;13.60;;;9.27;;
18853;SDS011;9556;49.374;19.446;2022-07-29T06:03:58;16.80;;;10.07;;
18853;SDS011;9556;49.374;19.446;2022-07-29T06:06:26;13.30;;;9.77;;
18853;SDS011;9556;49.374;19.446;2022-07-29T06:08:53;11.93;;;9.10;;
18853;SDS011;9556;49.374;19.446;2022-07-29T06:11:20;15.57;;;9.90;;
18853;SDS011;9556;49.374;19.446;2022-07-29T06:13:47;13.70;;;9.67;;
18853;SDS011;9556;49.374;19.446;2022-07-29T06:16:14;12.90;;;9.43;;
18853;SDS011;9556;49.374;19.446;2022-07-29T06:18:41;14.77;;;9.90;;
18853;SDS011;9556;49.374;19.446;2022-07-29T06:21:10;18.93;;;9.60;;
18853;SDS011;9556;49.374;19.446;2022-07-29T06:23:37;17.53;;;10.03;;
18853;SDS011;9556;49.374;19.446;2022-07-29T06:26:04;18.40;;;9.23;;
18853;SDS011;9556;49.374;19.446;2022-07-29T06:28:32;16.50;;;9.30;;
18853;SDS011;9556;49.374;19.446;2022-07-29T06:30:59;21.17;;;8.97;;
18853;SDS011;9556;49.374;19.446;2022-07-29T06:33:26;15.90;;;8.77;;
18853;SDS011;9556;49.374;19.446;2022-07-29T06:35:54;17.50;;;8.47;;
18853;SDS011;9556;49.374;19.446;2022-07-29T06:38:22;12.73;;;8.70;;
18853;SDS011;9556;49.374;19.446;2022-07-29T06:40:49;11.93;;;8.80;;
18853;SDS011;9556;49.374;19.446;2022-07-29T06:43:31;15.23;;;8.00;;
18853;SDS011;9556;49.374;19.446;2022-07-29T06:46:01;13.20;;;8.60;;
18853;SDS011;9556;49.374;19.446;2022-07-29T06:48:28;10.57;;;7.47;;
18853;SDS011;9556;49.374;19.446;2022-07-29T06:50:55;13.13;;;7.50;;
18853;SDS011;9556;49.374;19.446;2022-07-29T06:53:24;16.37;;;8.33;;
18853;SDS011;9556;49.374;19.446;2022-07-29T06:55:51;9.80;;;7.57;;
18853;SDS011;9556;49.374;19.446;2022-07-29T06:58:18;12.07;;;7.30;;
18853;SDS011;9556;49.374;19.446;2022-07-29T07:00:46;12.40;;;7.50;;
18853;SDS011;9556;49.374;19.446;2022-07-29T07:03:13;11.03;;;7.50;;
18853;SDS011;9556;49.374;19.446;2022-07-29T07:05:40;10.93;;;7.00;;
18853;SDS011;9556;49.374;19.446;2022-07-29T07:08:07;12.90;;;7.67;;
18853;SDS011;9556;49.374;19.446;2022-07-29T07:10:36;10.13;;;6.83;;
18853;SDS011;9556;49.374;19.446;2022-07-29T07:13:03;15.03;;;7.70;;
18853;SDS011;9556;49.374;19.446;2022-07-29T07:15:31;14.13;;;6.40;;
18853;SDS011;9556;49.374;19.446;2022-07-29T07:17:58;7.63;;;6.40;;
18853;SDS011;9556;49.374;19.446;2022-07-29T07:20:25;11.43;;;6.70;;
18853;SDS011;9556;49.374;19.446;2022-07-29T07:22:52;10.17;;;6.90;;
18853;SDS011;9556;49.374;19.446;2022-07-29T07:25:19;11.23;;;6.90;;
18853;SDS011;9556;49.374;19.446;2022-07-29T07:27:47;11.27;;;6.57;;
18853;SDS011;9556;49.374;19.446;2022-07-29T07:30:15;10.50;;;6.60;;
18853;SDS011;9556;49.374;19.446;2022-07-29T07:32:42;13.63;;;6.60;;
18853;SDS011;9556;49.374;19.446;2022-07-29T07:35:09;8.68;;;6.00;;
18853;SDS011;9556;49.374;19.446;2022-07-29T07:37:37;10.87;;;5.97;;
18853;SDS011;9556;49.374;19.446;2022-07-29T07:40:06;10.15;;;6.13;;
18853;SDS011;9556;49.374;19.446;2022-07-29T07:42:33;11.70;;;5.93;;
18853;SDS011;9556;49.374;19.446;2022-07-29T07:45:02;10.88;;;5.97;;
18853;SDS011;9556;49.374;19.446;2022-07-29T07:47:29;10.93;;;5.43;;
18853;SDS011;9556;49.374;19.446;2022-07-29T07:49:56;7.80;;;5.43;;
18853;SDS011;9556;49.374;19.446;2022-07-29T07:52:24;7.75;;;5.60;;
18853;SDS011;9556;49.374;19.446;2022-07-29T07:54:51;8.35;;;5.20;;
18853;SDS011;9556;49.374;19.446;2022-07-29T07:57:18;8.13;;;5.30;;
18853;SDS011;9556;49.374;19.446;2022-07-29T07:59:45;7.28;;;5.18;;
18853;SDS011;9556;49.374;19.446;2022-07-29T08:02:13;14.87;;;5.20;;
18853;SDS011;9556;49.374;19.446;2022-07-29T08:04:40;8.07;;;5.13;;
18853;SDS011;9556;49.374;19.446;2022-07-29T08:07:08;6.90;;;5.22;;
18853;SDS011;9556;49.374;19.446;2022-07-29T08:09:35;8.30;;;5.32;;
18853;SDS011;9556;49.374;19.446;2022-07-29T08:12:02;8.10;;;5.38;;
18853;SDS011;9556;49.374;19.446;2022-07-29T08:14:30;12.15;;;5.35;;
18853;SDS011;9556;49.374;19.446;2022-07-29T08:16:58;9.70;;;5.25;;
18853;SDS011;9556;49.374;19.446;2022-07-29T08:19:27;9.13;;;5.60;;
18853;SDS011;9556;49.374;19.446;2022-07-29T08:21:54;7.60;;;5.10;;
18853;SDS011;9556;49.374;19.446;2022-07-29T08:24:21;9.52;;;5.55;;
18853;SDS011;9556;49.374;19.446;2022-07-29T08:27:06;7.70;;;5.40;;
18853;SDS011;9556;49.374;19.446;2022-07-29T08:29:33;11.50;;;5.55;;
18853;SDS011;9556;49.374;19.446;2022-07-29T08:32:00;7.60;;;5.10;;
18853;SDS011;9556;49.374;19.446;2022-07-29T08:34:28;8.23;;;5.25;;
18853;SDS011;9556;49.374;19.446;2022-07-29T08:36:56;13.00;;;5.70;;
18853;SDS011;9556;49.374;19.446;2022-07-29T08:39:23;10.40;;;5.10;;
18853;SDS011;9556;49.374;19.446;2022-07-29T08:41:50;7.78;;;5.32;;
18853;SDS011;9556;49.374;19.446;2022-07-29T08:44:18;9.50;;;5.50;;
18853;SDS011;9556;49.374;19.446;2022-07-29T08:46:46;9.20;;;5.25;;
18853;SDS011;9556;49.374;19.446;2022-07-29T08:49:14;8.38;;;4.82;;
18853;SDS011;9556;49.374;19.446;2022-07-29T08:51:42;6.82;;;4.95;;
18853;SDS011;9556;49.374;19.446;2022-07-29T08:54:10;8.32;;;5.22;;
18853;SDS011;9556;49.374;19.446;2022-07-29T08:56:38;8.48;;;5.28;;
18853;SDS011;9556;49.374;19.446;2022-07-29T08:59:06;7.60;;;4.90;;
18853;SDS011;9556;49.374;19.446;2022-07-29T09:01:34;9.27;;;5.35;;
18853;SDS011;9556;49.374;19.446;2022-07-29T09:04:04;15.55;;;4.72;;
18853;SDS011;9556;49.374;19.446;2022-07-29T09:06:34;8.65;;;4.97;;
18853;SDS011;9556;49.374;19.446;2022-07-29T09:09:04;8.02;;;4.90;;
18853;SDS011;9556;49.374;19.446;2022-07-29T09:11:32;7.90;;;5.07;;
18853;SDS011;9556;49.374;19.446;2022-07-29T09:13:59;7.05;;;5.18;;
18853;SDS011;9556;49.374;19.446;2022-07-29T09:16:27;6.25;;;4.80;;
18853;SDS011;9556;49.374;19.446;2022-07-29T09:19:14;8.45;;;4.75;;
18853;SDS011;9556;49.374;19.446;2022-07-29T09:21:45;7.18;;;4.70;;
18853;SDS011;9556;49.374;19.446;2022-07-29T09:24:27;11.00;;;4.82;;
18853;SDS011;9556;49.374;19.446;2022-07-29T09:26:54;10.73;;;4.60;;
18853;SDS011;9556;49.374;19.446;2022-07-29T09:29:22;6.70;;;4.00;;
18853;SDS011;9556;49.374;19.446;2022-07-29T09:31:51;9.65;;;4.60;;
18853;SDS011;9556;49.374;19.446;2022-07-29T09:34:21;7.00;;;4.45;;
18853;SDS011;9556;49.374;19.446;2022-07-29T09:36:49;5.97;;;4.70;;
18853;SDS011;9556;49.374;19.446;2022-07-29T09:39:26;7.47;;;4.15;;
18853;SDS011;9556;49.374;19.446;2022-07-29T09:41:56;5.70;;;4.50;;
18853;SDS011;9556;49.374;19.446;2022-07-29T09:44:23;7.68;;;4.75;;
18853;SDS011;9556;49.374;19.446;2022-07-29T09:46:57;7.05;;;4.82;;
18853;SDS011;9556;49.374;19.446;2022-07-29T09:49:30;8.15;;;4.30;;
18853;SDS011;9556;49.374;19.446;2022-07-29T09:52:05;10.68;;;4.35;;
18853;SDS011;9556;49.374;19.446;2022-07-29T09:54:32;4.85;;;3.88;;
18853;SDS011;9556;49.374;19.446;2022-07-29T09:57:04;7.90;;;4.38;;
18853;SDS011;9556;49.374;19.446;2022-07-29T09:59:32;8.45;;;4.53;;
18853;SDS011;9556;49.374;19.446;2022-07-29T10:01:59;6.68;;;4.20;;
18853;SDS011;9556;49.374;19.446;2022-07-29T10:04:36;9.32;;;4.32;;
18853;SDS011;9556;49.374;19.446;2022-07-29T10:07:04;7.53;;;4.10;;
18853;SDS011;9556;49.374;19.446;2022-07-29T10:09:32;8.23;;;4.55;;
18853;SDS011;9556;49.374;19.446;2022-07-29T10:12:08;5.05;;;3.95;;
18853;SDS011;9556;49.374;19.446;2022-07-29T10:14:36;5.30;;;4.10;;
18853;SDS011;9556;49.374;19.446;2022-07-29T10:17:05;7.07;;;4.03;;
18853;SDS011;9556;49.374;19.446;2022-07-29T10:19:32;10.27;;;4.35;;
18853;SDS011;9556;49.374;19.446;2022-07-29T10:22:00;5.75;;;3.90;;
18853;SDS011;9556;49.374;19.446;2022-07-29T10:24:28;5.75;;;4.07;;
18853;SDS011;9556;49.374;19.446;2022-07-29T10:26:56;5.05;;;3.80;;
18853;SDS011;9556;49.374;19.446;2022-07-29T10:29:25;5.18;;;4.07;;
18853;SDS011;9556;49.374;19.446;2022-07-29T10:32:02;7.57;;;4.00;;
18853;SDS011;9556;49.374;19.446;2022-07-29T10:34:34;6.20;;;3.90;;
18853;SDS011;9556;49.374;19.446;2022-07-29T10:37:05;6.47;;;3.90;;
18853;SDS011;9556;49.374;19.446;2022-07-29T10:39:38;9.13;;;4.10;;
18853;SDS011;9556;49.374;19.446;2022-07-29T10:42:11;6.65;;;4.05;;
18853;SDS011;9556;49.374;19.446;2022-07-29T10:44:42;5.53;;;4.05;;
18853;SDS011;9556;49.374;19.446;2022-07-29T10:47:19;6.65;;;4.10;;
18853;SDS011;9556;49.374;19.446;2022-07-29T10:49:54;6.03;;;3.80;;
18853;SDS011;9556;49.374;19.446;2022-07-29T10:52:22;9.13;;;4.00;;
18853;SDS011;9556;49.374;19.446;2022-07-29T10:54:52;6.70;;;3.97;;
18853;SDS011;9556;49.374;19.446;2022-07-29T10:57:24;7.65;;;3.90;;
18853;SDS011;9556;49.374;19.446;2022-07-29T11:02:42;6.50;;;3.45;;
18853;SDS011;9556;49.374;19.446;2022-07-29T11:05:10;10.10;;;4.00;;
18853;SDS011;9556;49.374;19.446;2022-07-29T11:07:38;6.50;;;4.00;;
18853;SDS011;9556;49.374;19.446;2022-07-29T11:10:22;6.30;;;4.20;;
18853;SDS011;9556;49.374;19.446;2022-07-29T11:12:50;8.55;;;4.03;;
18853;SDS011;9556;49.374;19.446;2022-07-29T11:15:18;5.65;;;4.18;;
18853;SDS011;9556;49.374;19.446;2022-07-29T11:18:06;7.15;;;3.60;;
18853;SDS011;9556;49.374;19.446;2022-07-29T11:20:34;8.82;;;4.30;;
18853;SDS011;9556;49.374;19.446;2022-07-29T11:23:14;10.10;;;4.07;;
18853;SDS011;9556;49.374;19.446;2022-07-29T11:25:43;6.53;;;3.90;;
18853;SDS011;9556;49.374;19.446;2022-07-29T11:28:13;10.20;;;4.07;;
18853;SDS011;9556;49.374;19.446;2022-07-29T11:30:47;8.30;;;4.10;;
18853;SDS011;9556;49.374;19.446;2022-07-29T11:33:29;7.57;;;4.22;;
18853;SDS011;9556;49.374;19.446;2022-07-29T11:36:09;5.47;;;4.45;;
18853;SDS011;9556;49.374;19.446;2022-07-29T11:38:36;8.30;;;4.20;;
18853;SDS011;9556;49.374;19.446;2022-07-29T11:41:19;5.65;;;4.07;;
18853;SDS011;9556;49.374;19.446;2022-07-29T11:43:47;6.57;;;4.00;;
18853;SDS011;9556;49.374;19.446;2022-07-29T11:46:16;6.30;;;3.50;;
18853;SDS011;9556;49.374;19.446;2022-07-29T11:48:44;11.70;;;4.30;;
18853;SDS011;9556;49.374;19.446;2022-07-29T11:51:12;5.30;;;3.80;;
18853;SDS011;9556;49.374;19.446;2022-07-29T11:53:39;12.45;;;3.58;;
18853;SDS011;9556;49.374;19.446;2022-07-29T11:56:08;4.97;;;3.60;;
18853;SDS011;9556;49.374;19.446;2022-07-29T11:58:35;5.63;;;3.20;;
18853;SDS011;9556;49.374;19.446;2022-07-29T12:01:03;5.40;;;3.78;;
18853;SDS011;9556;49.374;19.446;2022-07-29T12:03:31;7.63;;;3.78;;
18853;SDS011;9556;49.374;19.446;2022-07-29T12:06:00;9.52;;;3.65;;
18853;SDS011;9556;49.374;19.446;2022-07-29T12:08:28;5.35;;;3.33;;
18853;SDS011;9556;49.374;19.446;2022-07-29T12:10:56;6.25;;;3.13;;
18853;SDS011;9556;49.374;19.446;2022-07-29T12:13:23;3.78;;;3.35;;
18853;SDS011;9556;49.374;19.446;2022-07-29T12:15:53;8.82;;;3.30;;
18853;SDS011;9556;49.374;19.446;2022-07-29T12:18:21;4.45;;;3.30;;
18853;SDS011;9556;49.374;19.446;2022-07-29T12:20:49;7.72;;;3.40;;
18853;SDS011;9556;49.374;19.446;2022-07-29T12:23:24;7.40;;;3.33;;
18853;SDS011;9556;49.374;19.446;2022-07-29T12:25:51;8.57;;;3.25;;
18853;SDS011;9556;49.374;19.446;2022-07-29T12:28:19;7.32;;;3.30;;
18853;SDS011;9556;49.374;19.446;2022-07-29T12:30:47;6.78;;;3.45;;
18853;SDS011;9556;49.374;19.446;2022-07-29T12:33:18;6.72;;;3.42;;
18853;SDS011;9556;49.374;19.446;2022-07-29T12:35:46;6.45;;;3.40;;
18853;SDS011;9556;49.374;19.446;2022-07-29T12:38:14;6.22;;;3.63;;
18853;SDS011;9556;49.374;19.446;2022-07-29T12:40:43;5.45;;;3.25;;
18853;SDS011;9556;49.374;19.446;2022-07-29T12:43:11;4.47;;;3.05;;
18853;SDS011;9556;49.374;19.446;2022-07-29T12:45:39;4.85;;;2.92;;
18853;SDS011;9556;49.374;19.446;2022-07-29T12:48:06;4.78;;;2.88;;
18853;SDS011;9556;49.374;19.446;2022-07-29T12:50:34;5.88;;;2.80;;
18853;SDS011;9556;49.374;19.446;2022-07-29T12:53:08;4.13;;;3.03;;
18853;SDS011;9556;49.374;19.446;2022-07-29T12:55:42;7.85;;;2.83;;
18853;SDS011;9556;49.374;19.446;2022-07-29T12:58:11;7.20;;;3.03;;
18853;SDS011;9556;49.374;19.446;2022-07-29T13:00:38;4.55;;;3.00;;
18853;SDS011;9556;49.374;19.446;2022-07-29T13:03:05;5.25;;;3.20;;
18853;SDS011;9556;49.374;19.446;2022-07-29T13:05:39;8.60;;;3.42;;
18853;SDS011;9556;49.374;19.446;2022-07-29T13:08:10;5.57;;;3.30;;
18853;SDS011;9556;49.374;19.446;2022-07-29T13:10:37;6.57;;;3.33;;
18853;SDS011;9556;49.374;19.446;2022-07-29T13:13:05;8.45;;;3.22;;
18853;SDS011;9556;49.374;19.446;2022-07-29T13:15:34;6.80;;;3.20;;
18853;SDS011;9556;49.374;19.446;2022-07-29T13:18:02;9.10;;;3.50;;
18853;SDS011;9556;49.374;19.446;2022-07-29T13:20:29;9.73;;;3.08;;
18853;SDS011;9556;49.374;19.446;2022-07-29T13:22:57;40.72;;;17.63;;
18853;SDS011;9556;49.374;19.446;2022-07-29T13:25:25;85.13;;;54.35;;
18853;SDS011;9556;49.374;19.446;2022-07-29T13:27:52;37.75;;;25.42;;
18853;SDS011;9556;49.374;19.446;2022-07-29T13:30:20;8.55;;;4.00;;
18853;SDS011;9556;49.374;19.446;2022-07-29T13:32:49;11.52;;;3.85;;
18853;SDS011;9556;49.374;19.446;2022-07-29T13:35:16;10.10;;;3.50;;
18853;SDS011;9556;49.374;19.446;2022-07-29T13:37:43;12.32;;;4.40;;
18853;SDS011;9556;49.374;19.446;2022-07-29T13:40:11;10.90;;;3.70;;
18853;SDS011;9556;49.374;19.446;2022-07-29T13:42:38;14.10;;;3.40;;
18853;SDS011;9556;49.374;19.446;2022-07-29T13:45:07;9.60;;;3.50;;
18853;SDS011;9556;49.374;19.446;2022-07-29T13:47:35;4.45;;;3.10;;
18853;SDS011;9556;49.374;19.446;2022-07-29T13:50:05;9.93;;;3.55;;
18853;SDS011;9556;49.374;19.446;2022-07-29T13:52:32;8.48;;;3.35;;
18853;SDS011;9556;49.374;19.446;2022-07-29T13:55:00;5.82;;;3.58;;
18853;SDS011;9556;49.374;19.446;2022-07-29T13:57:27;4.22;;;2.90;;
18853;SDS011;9556;49.374;19.446;2022-07-29T13:59:55;4.40;;;2.95;;
18853;SDS011;9556;49.374;19.446;2022-07-29T14:02:22;9.60;;;3.10;;
18853;SDS011;9556;49.374;19.446;2022-07-29T14:04:49;4.50;;;3.10;;
18853;SDS011;9556;49.374;19.446;2022-07-29T14:07:18;4.32;;;3.08;;
18853;SDS011;9556;49.374;19.446;2022-07-29T14:09:45;4.32;;;2.92;;
18853;SDS011;9556;49.374;19.446;2022-07-29T14:12:12;6.90;;;3.40;;
18853;SDS011;9556;49.374;19.446;2022-07-29T14:14:39;4.28;;;3.05;;
18853;SDS011;9556;49.374;19.446;2022-07-29T14:17:06;4.10;;;2.45;;
18853;SDS011;9556;49.374;19.446;2022-07-29T14:19:34;7.07;;;2.97;;
18853;SDS011;9556;49.374;19.446;2022-07-29T14:22:02;3.90;;;2.97;;
18853;SDS011;9556;49.374;19.446;2022-07-29T14:24:31;4.43;;;3.50;;
18853;SDS011;9556;49.374;19.446;2022-07-29T14:26:58;6.72;;;3.50;;
18853;SDS011;9556;49.374;19.446;2022-07-29T14:29:25;5.15;;;3.60;;
18853;SDS011;9556;49.374;19.446;2022-07-29T14:31:52;4.47;;;3.40;;
18853;SDS011;9556;49.374;19.446;2022-07-29T14:34:19;6.75;;;3.17;;
18853;SDS011;9556;49.374;19.446;2022-07-29T14:36:47;8.57;;;3.40;;
18853;SDS011;9556;49.374;19.446;2022-07-29T14:39:14;5.53;;;3.13;;
18853;SDS011;9556;49.374;19.446;2022-07-29T14:41:43;7.22;;;3.00;;
18853;SDS011;9556;49.374;19.446;2022-07-29T14:44:10;5.63;;;3.50;;
18853;SDS011;9556;49.374;19.446;2022-07-29T14:46:37;4.30;;;3.05;;
18853;SDS011;9556;49.374;19.446;2022-07-29T14:49:04;3.78;;;2.78;;
18853;SDS011;9556;49.374;19.446;2022-07-29T14:51:31;3.00;;;2.67;;
18853;SDS011;9556;49.374;19.446;2022-07-29T14:53:59;6.70;;;3.38;;